Time;durP1;ratioP1;P1;durP2;ratioP2;P2;SDS_P1;SDS_P2;PMS_P1;PMS_P2;Temp;Humidity;BMP_temperature;BMP_pressure;BME280_temperature;BME280_humidity;BME280_pressure;Samples;Min_cycle;Max_cycle;Signal;HPM_P1;HPM_P2
2024/03/22 00:00:29;;;;;;;65.15;36.15;;;;;;;;;;5072470;28;20078;-59
2024/03/22 00:02:55;;;;;;;82.38;46.50;;;;;;;;;;5072339;28;20036;-64
2024/03/22 00:05:21;;;;;;;120.63;61.75;;;;;;;;;;5054588;28;20470;-64
2024/03/22 00:07:47;;;;;;;108.43;57.20;;;;;;;;;;5072736;28;20073;-64
2024/03/22 00:10:13;;;;;;;125.55;61.95;;;;;;;;;;5072315;28;20427;-64
2024/03/22 00:12:41;;;;;;;128.60;61.70;;;;;;;;;;5072452;28;20089;-64
2024/03/22 00:15:06;;;;;;;107.43;54.70;;;;;;;;;;5072867;28;20028;-64
2024/03/22 00:17:33;;;;;;;117.30;58.95;;;;;;;;;;5055697;28;20029;-64
2024/03/22 00:19:58;;;;;;;108.55;57.13;;;;;;;;;;5072848;28;20029;-64
2024/03/22 00:22:30;;;;;;;111.15;54.88;;;;;;;;;;5073623;28;20398;-64
2024/03/22 00:24:55;;;;;;;106.32;55.85;;;;;;;;;;5074086;28;20483;-64
2024/03/22 00:27:21;;;;;;;100.75;51.65;;;;;;;;;;5073919;28;20055;-64
2024/03/22 00:29:49;;;;;;;91.28;47.38;;;;;;;;;;5055965;28;20056;-64
2024/03/22 00:32:15;;;;;;;94.05;49.15;;;;;;;;;;5074083;28;20020;-64
2024/03/22 00:34:40;;;;;;;98.47;50.47;;;;;;;;;;5073792;28;20056;-64
2024/03/22 00:37:05;;;;;;;97.03;51.83;;;;;;;;;;5071809;28;20124;-64
2024/03/22 00:39:32;;;;;;;92.97;49.20;;;;;;;;;;5074003;28;20031;-64
2024/03/22 00:44:38;;;;;;;;;;;;;;;;;;5081541;22;20083;-60
2024/03/22 00:47:03;;;;;;;99.03;50.00;;;;;;;;;;5083306;22;20383;-60
2024/03/22 00:49:29;;;;;;;99.38;50.60;;;;;;;;;;5073911;28;20367;-60
2024/03/22 00:51:56;;;;;;;78.10;41.45;;;;;;;;;;5073540;28;20421;-60
2024/03/22 00:54:29;;;;;;;66.15;36.58;;;;;;;;;;5073816;28;20418;-60
2024/03/22 00:56:55;;;;;;;64.53;35.08;;;;;;;;;;5073784;28;20036;-60
2024/03/22 00:59:20;;;;;;;66.63;36.90;;;;;;;;;;5074054;28;20086;-60
2024/03/22 01:01:45;;;;;;;58.55;32.28;;;;;;;;;;5073740;28;20149;-60
2024/03/22 01:04:11;;;;;;;51.22;29.27;;;;;;;;;;5055489;28;20060;-60
2024/03/22 01:09:32;;;;;;;37.08;22.52;;;;;;;;;;5079992;22;20139;-65
2024/03/22 01:11:58;;;;;;;23.92;15.93;;;;;;;;;;5073724;28;20224;-65
2024/03/22 01:14:23;;;;;;;20.05;13.88;;;;;;;;;;5073670;28;20016;-64
2024/03/22 01:16:48;;;;;;;21.33;13.85;;;;;;;;;;5055559;28;20428;-64
2024/03/22 01:19:14;;;;;;;18.55;13.20;;;;;;;;;;5073323;28;20367;-64
2024/03/22 01:21:40;;;;;;;17.15;12.50;;;;;;;;;;5074017;28;20074;-64
2024/03/22 01:24:05;;;;;;;18.48;12.20;;;;;;;;;;5077158;28;20033;-64
2024/03/22 01:26:31;;;;;;;17.33;12.40;;;;;;;;;;5077496;28;20036;-64
2024/03/22 01:28:57;;;;;;;21.98;12.20;;;;;;;;;;5077187;28;20420;-64
2024/03/22 01:31:22;;;;;;;15.73;11.68;;;;;;;;;;5077319;28;20375;-64
2024/03/22 01:33:47;;;;;;;17.63;11.15;;;;;;;;;;5077371;28;20028;-65
2024/03/22 01:36:13;;;;;;;18.77;11.10;;;;;;;;;;5077583;28;20029;-65
2024/03/22 01:38:38;;;;;;;14.23;10.77;;;;;;;;;;5077268;28;20062;-66
2024/03/22 01:41:03;;;;;;;13.93;10.60;;;;;;;;;;5060131;28;20040;-59
2024/03/22 01:43:29;;;;;;;14.93;11.25;;;;;;;;;;5077331;28;20090;-60
2024/03/22 01:45:55;;;;;;;17.58;11.43;;;;;;;;;;5058730;28;20066;-60
2024/03/22 01:48:21;;;;;;;14.93;11.10;;;;;;;;;;5075294;28;20025;-60
2024/03/22 01:50:46;;;;;;;17.63;11.68;;;;;;;;;;5074726;28;20035;-60
2024/03/22 01:53:12;;;;;;;15.85;11.00;;;;;;;;;;5074999;28;20440;-60
2024/03/22 01:55:37;;;;;;;14.05;10.93;;;;;;;;;;5056720;28;20077;-61
2024/03/22 01:58:04;;;;;;;18.25;11.18;;;;;;;;;;5056832;28;20158;-60
2024/03/22 02:00:30;;;;;;;15.82;11.38;;;;;;;;;;5074526;28;20040;-60
2024/03/22 02:02:55;;;;;;;14.57;10.48;;;;;;;;;;5074719;28;20100;-60
2024/03/22 02:05:21;;;;;;;15.40;10.77;;;;;;;;;;5074473;28;20431;-60
2024/03/22 02:07:47;;;;;;;15.10;10.82;;;;;;;;;;5074414;28;20036;-60
2024/03/22 02:10:13;;;;;;;13.70;10.20;;;;;;;;;;5074841;28;20028;-61
2024/03/22 02:12:38;;;;;;;12.52;10.05;;;;;;;;;;5074628;28;20029;-61
2024/03/22 02:15:04;;;;;;;12.80;9.82;;;;;;;;;;5074781;28;20037;-61
2024/03/22 02:17:31;;;;;;;13.25;10.05;;;;;;;;;;5074758;28;20029;-60
2024/03/22 02:19:56;;;;;;;14.95;10.43;;;;;;;;;;5074835;28;20111;-60
2024/03/22 02:22:22;;;;;;;15.73;11.18;;;;;;;;;;5075901;28;20071;-60
2024/03/22 02:24:47;;;;;;;15.68;10.48;;;;;;;;;;5076329;28;20055;-60
2024/03/22 02:27:12;;;;;;;12.77;10.55;;;;;;;;;;5076076;28;20475;-60
2024/03/22 02:29:39;;;;;;;13.63;10.40;;;;;;;;;;5076037;28;20024;-60
2024/03/22 02:32:05;;;;;;;15.95;10.48;;;;;;;;;;5076284;28;20033;-61
2024/03/22 02:34:30;;;;;;;15.18;10.55;;;;;;;;;;5057232;28;20034;-60
2024/03/22 02:36:55;;;;;;;15.05;10.45;;;;;;;;;;5075943;28;20553;-60
2024/03/22 02:39:21;;;;;;;13.63;10.63;;;;;;;;;;5058021;28;20032;-60
2024/03/22 02:41:46;;;;;;;14.65;10.27;;;;;;;;;;5075806;28;20070;-61
2024/03/22 02:44:11;;;;;;;15.98;10.63;;;;;;;;;;5075708;28;20016;-59
2024/03/22 02:46:37;;;;;;;15.65;10.88;;;;;;;;;;5075758;28;20463;-59
2024/03/22 02:49:02;;;;;;;14.25;10.52;;;;;;;;;;5076237;28;20105;-59
2024/03/22 02:51:27;;;;;;;13.02;10.00;;;;;;;;;;5075649;28;20146;-59
2024/03/22 02:53:53;;;;;;;14.85;10.38;;;;;;;;;;5075626;28;20429;-60
2024/03/22 02:56:18;;;;;;;14.93;9.85;;;;;;;;;;5075602;28;20037;-60
2024/03/22 02:58:45;;;;;;;11.63;9.23;;;;;;;;;;5075796;28;20474;-60
2024/03/22 03:01:11;;;;;;;14.88;10.98;;;;;;;;;;5075761;28;20078;-64
2024/03/22 03:03:37;;;;;;;13.88;10.55;;;;;;;;;;5075908;28;20029;-64
2024/03/22 03:06:02;;;;;;;14.77;11.68;;;;;;;;;;5057424;28;20390;-64
2024/03/22 03:08:27;;;;;;;15.57;11.23;;;;;;;;;;5075242;28;20032;-64
2024/03/22 03:10:53;;;;;;;13.10;10.20;;;;;;;;;;5075276;28;20028;-64
2024/03/22 03:13:18;;;;;;;15.85;11.32;;;;;;;;;;5075785;28;20036;-64
2024/03/22 03:15:43;;;;;;;15.98;13.00;;;;;;;;;;5075710;28;20040;-64
2024/03/22 03:18:09;;;;;;;15.00;11.77;;;;;;;;;;5057283;28;20046;-64
2024/03/22 03:20:34;;;;;;;18.17;11.68;;;;;;;;;;5075308;28;20031;-64
2024/03/22 03:23:01;;;;;;;16.63;13.23;;;;;;;;;;5074933;28;20422;-64
2024/03/22 03:25:26;;;;;;;18.10;12.65;;;;;;;;;;5075272;28;20008;-65
2024/03/22 03:27:52;;;;;;;15.55;13.02;;;;;;;;;;5057404;28;20035;-65
2024/03/22 03:30:17;;;;;;;16.85;12.10;;;;;;;;;;5056960;28;20032;-65
2024/03/22 03:32:42;;;;;;;15.18;12.35;;;;;;;;;;5074780;28;20024;-65
2024/03/22 03:35:08;;;;;;;16.52;11.98;;;;;;;;;;5075288;28;20475;-64
2024/03/22 03:37:33;;;;;;;15.10;11.98;;;;;;;;;;5074706;28;20027;-64
2024/03/22 03:39:59;;;;;;;16.23;12.45;;;;;;;;;;5056860;28;20492;-64
2024/03/22 03:42:24;;;;;;;13.38;10.93;;;;;;;;;;5074885;28;20036;-64
2024/03/22 03:44:49;;;;;;;16.02;12.27;;;;;;;;;;5056338;28;20089;-64
2024/03/22 03:47:15;;;;;;;14.57;11.77;;;;;;;;;;5055877;28;20059;-64
2024/03/22 03:49:40;;;;;;;14.52;11.07;;;;;;;;;;5075018;28;20402;-64
2024/03/22 03:52:06;;;;;;;13.00;10.27;;;;;;;;;;5074741;28;20157;-64
2024/03/22 03:54:31;;;;;;;13.73;10.55;;;;;;;;;;5056474;28;20060;-64
2024/03/22 03:56:57;;;;;;;14.02;11.27;;;;;;;;;;5074620;28;20036;-64
2024/03/22 03:59:22;;;;;;;15.20;11.43;;;;;;;;;;5074268;28;20042;-64
2024/03/22 04:01:47;;;;;;;15.65;12.48;;;;;;;;;;5074274;28;20021;-65
2024/03/22 04:04:13;;;;;;;17.33;10.02;;;;;;;;;;5074627;28;20058;-65
2024/03/22 04:06:38;;;;;;;16.05;11.95;;;;;;;;;;5074703;28;20033;-64
2024/03/22 04:09:03;;;;;;;16.20;12.13;;;;;;;;;;5073916;28;20040;-64
2024/03/22 04:11:29;;;;;;;15.75;12.32;;;;;;;;;;5074358;28;20036;-64
2024/03/22 04:13:54;;;;;;;14.93;11.27;;;;;;;;;;5074318;28;20043;-64
2024/03/22 04:16:20;;;;;;;19.20;12.10;;;;;;;;;;5074289;28;20032;-64
2024/03/22 04:18:45;;;;;;;15.23;11.43;;;;;;;;;;5056882;28;20119;-64
2024/03/22 04:21:11;;;;;;;17.40;12.70;;;;;;;;;;5056081;28;20379;-64
2024/03/22 04:23:36;;;;;;;17.35;12.48;;;;;;;;;;5056210;28;20044;-65
2024/03/22 04:26:02;;;;;;;14.50;11.25;;;;;;;;;;5073983;28;20071;-63
2024/03/22 04:28:28;;;;;;;13.85;9.98;;;;;;;;;;5073838;28;20483;-60
2024/03/22 04:30:58;;;;;;;14.65;11.05;;;;;;;;;;5053221;28;20054;-60
2024/03/22 04:33:23;;;;;;;14.50;12.10;;;;;;;;;;5061656;28;20068;-63
2024/03/22 04:35:49;;;;;;;16.75;12.57;;;;;;;;;;5064380;28;20060;-60
2024/03/22 04:38:15;;;;;;;18.08;12.98;;;;;;;;;;5047873;28;20474;-64
2024/03/22 04:40:40;;;;;;;14.77;11.90;;;;;;;;;;5056094;28;20037;-64
2024/03/22 04:43:06;;;;;;;14.75;11.80;;;;;;;;;;5056088;28;20063;-64
2024/03/22 04:45:31;;;;;;;14.95;11.40;;;;;;;;;;5056363;28;20378;-64
2024/03/22 04:47:57;;;;;;;16.05;12.15;;;;;;;;;;5074501;28;20023;-64
2024/03/22 04:50:22;;;;;;;16.05;11.75;;;;;;;;;;5072988;28;20021;-64
2024/03/22 04:52:47;;;;;;;14.27;11.18;;;;;;;;;;5055934;28;20056;-64
2024/03/22 04:55:13;;;;;;;15.10;11.38;;;;;;;;;;5073831;28;20029;-64
2024/03/22 04:57:38;;;;;;;15.30;11.15;;;;;;;;;;5073890;28;20016;-64
2024/03/22 05:00:07;;;;;;;15.02;11.23;;;;;;;;;;5073093;28;20020;-64
2024/03/22 05:02:32;;;;;;;14.70;11.45;;;;;;;;;;5072369;28;20078;-65
2024/03/22 05:04:57;;;;;;;14.25;11.77;;;;;;;;;;5054147;28;20032;-65
2024/03/22 05:07:23;;;;;;;14.25;11.45;;;;;;;;;;5053961;28;20052;-65
2024/03/22 05:09:48;;;;;;;15.00;11.68;;;;;;;;;;5071972;28;20037;-64
2024/03/22 05:12:13;;;;;;;14.57;11.07;;;;;;;;;;5072269;28;20035;-64
2024/03/22 05:14:39;;;;;;;14.52;11.55;;;;;;;;;;5072214;28;20067;-64
2024/03/22 05:17:05;;;;;;;13.85;11.20;;;;;;;;;;5073756;28;20064;-64
2024/03/22 05:19:31;;;;;;;15.40;11.90;;;;;;;;;;5073579;28;20513;-64
2024/03/22 05:21:56;;;;;;;15.65;11.45;;;;;;;;;;5073407;28;20082;-64
2024/03/22 05:24:21;;;;;;;14.70;11.32;;;;;;;;;;5073470;28;20047;-64
2024/03/22 05:26:47;;;;;;;13.23;10.82;;;;;;;;;;5055264;28;20163;-64
2024/03/22 05:29:12;;;;;;;15.00;11.00;;;;;;;;;;5073695;28;20107;-63
2024/03/22 05:31:45;;;;;;;15.60;11.10;;;;;;;;;;5073785;28;20111;-63
2024/03/22 05:34:11;;;;;;;13.75;11.48;;;;;;;;;;5073462;28;20029;-63
2024/03/22 05:36:36;;;;;;;14.32;10.70;;;;;;;;;;5073145;28;20415;-63
2024/03/22 05:39:02;;;;;;;13.38;10.75;;;;;;;;;;5073439;28;20040;-59
2024/03/22 05:41:27;;;;;;;12.85;10.18;;;;;;;;;;5055237;28;20447;-64
2024/03/22 05:43:53;;;;;;;12.73;10.15;;;;;;;;;;5055526;28;20775;-64
2024/03/22 05:46:18;;;;;;;11.80;10.05;;;;;;;;;;5073792;28;20035;-64
2024/03/22 05:48:43;;;;;;;14.73;9.73;;;;;;;;;;5073385;28;20049;-64
2024/03/22 05:51:09;;;;;;;13.90;10.80;;;;;;;;;;5055008;28;20549;-64
2024/03/22 05:53:34;;;;;;;13.38;10.25;;;;;;;;;;5073481;28;20085;-64
2024/03/22 05:56:00;;;;;;;14.02;10.50;;;;;;;;;;5073511;28;20032;-64
2024/03/22 05:58:25;;;;;;;11.30;9.95;;;;;;;;;;5073199;28;20115;-64
2024/03/22 06:00:53;;;;;;;11.35;9.75;;;;;;;;;;5097911;22;20076;-63
2024/03/22 06:03:18;;;;;;;11.48;8.52;;;;;;;;;;5075306;22;20060;-59
2024/03/22 06:05:45;;;;;;;9.35;8.32;;;;;;;;;;5083817;22;20063;-59
2024/03/22 06:08:10;;;;;;;13.32;8.68;;;;;;;;;;5073179;28;20020;-59
2024/03/22 06:10:35;;;;;;;10.68;8.57;;;;;;;;;;5076358;28;20028;-59
2024/03/22 06:13:01;;;;;;;11.65;8.55;;;;;;;;;;5076664;28;20032;-59
2024/03/22 06:15:26;;;;;;;10.25;8.32;;;;;;;;;;5076866;28;20063;-59
2024/03/22 06:17:53;;;;;;;10.50;8.43;;;;;;;;;;5076308;28;20150;-59
2024/03/22 06:20:18;;;;;;;10.63;8.55;;;;;;;;;;5058341;28;20036;-59
2024/03/22 06:22:44;;;;;;;11.63;9.02;;;;;;;;;;5076455;28;20038;-59
2024/03/22 06:25:09;;;;;;;11.13;8.88;;;;;;;;;;5076117;28;20433;-59
2024/03/22 06:27:35;;;;;;;10.00;8.15;;;;;;;;;;5041528;28;20016;-59
2024/03/22 06:30:00;;;;;;;10.38;8.35;;;;;;;;;;5076304;28;20078;-59
2024/03/22 06:32:26;;;;;;;11.45;9.60;;;;;;;;;;5057835;28;20426;-59
2024/03/22 06:34:52;;;;;;;10.20;8.95;;;;;;;;;;5075320;28;20082;-59
2024/03/22 06:37:17;;;;;;;11.40;8.77;;;;;;;;;;5074583;28;20033;-59
2024/03/22 06:39:43;;;;;;;12.15;9.55;;;;;;;;;;5074233;28;20024;-59
2024/03/22 06:42:08;;;;;;;12.00;9.73;;;;;;;;;;5074444;28;20063;-59
2024/03/22 06:44:33;;;;;;;12.50;11.20;;;;;;;;;;5074104;28;20032;-59
2024/03/22 06:46:59;;;;;;;14.05;10.20;;;;;;;;;;5074785;28;20058;-59
2024/03/22 06:49:25;;;;;;;13.15;10.77;;;;;;;;;;5074932;28;20020;-59
2024/03/22 06:51:50;;;;;;;13.27;9.10;;;;;;;;;;5074688;28;20032;-59
2024/03/22 06:54:15;;;;;;;15.13;9.90;;;;;;;;;;5056194;28;20482;-59
2024/03/22 06:56:41;;;;;;;11.52;9.70;;;;;;;;;;5073726;28;20059;-59
2024/03/22 06:59:06;;;;;;;12.45;10.07;;;;;;;;;;5073889;28;20048;-59
2024/03/22 07:01:31;;;;;;;12.23;10.38;;;;;;;;;;5073779;28;20044;-59
2024/03/22 07:03:57;;;;;;;11.18;9.98;;;;;;;;;;5055732;28;20104;-59
2024/03/22 07:06:22;;;;;;;11.52;10.30;;;;;;;;;;5073610;28;20060;-59
2024/03/22 07:08:48;;;;;;;11.02;9.88;;;;;;;;;;5075620;28;20032;-59
2024/03/22 07:11:13;;;;;;;12.57;9.63;;;;;;;;;;5057975;28;20040;-59
2024/03/22 07:13:39;;;;;;;11.35;9.73;;;;;;;;;;5075754;28;20032;-59
2024/03/22 07:16:05;;;;;;;12.40;9.48;;;;;;;;;;5075174;28;20052;-59
2024/03/22 07:18:30;;;;;;;13.60;10.25;;;;;;;;;;5075401;28;20501;-59
2024/03/22 07:20:57;;;;;;;12.88;10.32;;;;;;;;;;5056913;28;20063;-59
2024/03/22 07:23:23;;;;;;;11.27;9.85;;;;;;;;;;5074936;28;20036;-59
2024/03/22 07:25:48;;;;;;;11.30;9.00;;;;;;;;;;5075005;28;20013;-59
2024/03/22 07:28:14;;;;;;;11.38;9.75;;;;;;;;;;5075204;28;20031;-60
2024/03/22 07:30:39;;;;;;;14.50;11.20;;;;;;;;;;5056984;28;20475;-59
2024/03/22 07:33:04;;;;;;;13.32;10.43;;;;;;;;;;5074854;28;20133;-59
2024/03/22 07:35:30;;;;;;;15.60;11.63;;;;;;;;;;5074788;28;20063;-59
2024/03/22 07:37:56;;;;;;;13.50;11.27;;;;;;;;;;5086469;22;20118;-59
2024/03/22 07:40:25;;;;;;;15.70;11.73;;;;;;;;;;5101884;22;20198;-59
2024/03/22 07:42:51;;;;;;;17.17;12.30;;;;;;;;;;5062633;22;20045;-63
2024/03/22 07:45:16;;;;;;;18.67;12.93;;;;;;;;;;5085522;22;20049;-64
2024/03/22 07:47:43;;;;;;;16.02;12.00;;;;;;;;;;5074524;28;20493;-64
2024/03/22 07:50:09;;;;;;;14.32;10.15;;;;;;;;;;5056708;28;20479;-64
2024/03/22 07:52:34;;;;;;;13.02;10.02;;;;;;;;;;5056524;28;20027;-64
2024/03/22 07:55:01;;;;;;;16.27;10.60;;;;;;;;;;5074401;28;20471;-64
2024/03/22 07:57:27;;;;;;;15.63;10.73;;;;;;;;;;5056480;28;20497;-64
2024/03/22 07:59:53;;;;;;;13.80;9.32;;;;;;;;;;5056516;28;20054;-64
2024/03/22 08:02:19;;;;;;;14.48;10.23;;;;;;;;;;5074560;28;20040;-64
2024/03/22 08:04:44;;;;;;;14.90;10.32;;;;;;;;;;5074666;28;20112;-64
2024/03/22 08:07:09;;;;;;;13.35;10.05;;;;;;;;;;5074222;28;20077;-64
2024/03/22 08:09:35;;;;;;;12.77;9.38;;;;;;;;;;5074106;28;20024;-64
2024/03/22 08:12:00;;;;;;;13.90;9.32;;;;;;;;;;5074349;28;20025;-64
2024/03/22 08:14:25;;;;;;;9.80;7.88;;;;;;;;;;5074350;28;20034;-64
2024/03/22 08:16:51;;;;;;;11.38;8.13;;;;;;;;;;5056230;28;20052;-64
2024/03/22 08:19:17;;;;;;;9.68;7.28;;;;;;;;;;5073989;28;20475;-64
2024/03/22 08:21:42;;;;;;;11.90;8.07;;;;;;;;;;5056201;28;20040;-64
2024/03/22 08:24:07;;;;;;;10.65;7.53;;;;;;;;;;5074379;28;20077;-64
2024/03/22 08:26:33;;;;;;;10.65;7.15;;;;;;;;;;5074484;28;20028;-64
2024/03/22 08:28:59;;;;;;;10.52;7.22;;;;;;;;;;5056083;28;20096;-64
2024/03/22 08:31:25;;;;;;;10.60;8.07;;;;;;;;;;5073401;28;20158;-64
2024/03/22 08:33:51;;;;;;;9.25;6.95;;;;;;;;;;5073680;28;20056;-64
2024/03/22 08:36:17;;;;;;;8.55;6.93;;;;;;;;;;5055875;28;20449;-64
2024/03/22 08:38:42;;;;;;;10.00;7.15;;;;;;;;;;5055956;28;20056;-64
2024/03/22 08:41:08;;;;;;;11.73;8.20;;;;;;;;;;5056453;28;20094;-64
2024/03/22 08:43:33;;;;;;;9.60;7.25;;;;;;;;;;5073668;28;20032;-64
2024/03/22 08:45:59;;;;;;;9.80;7.40;;;;;;;;;;5073590;28;20123;-64
2024/03/22 08:48:25;;;;;;;9.13;6.72;;;;;;;;;;5055675;28;20441;-64
2024/03/22 08:50:50;;;;;;;8.93;7.60;;;;;;;;;;5073655;28;20107;-64
2024/03/22 08:53:15;;;;;;;9.98;7.90;;;;;;;;;;5055648;28;20382;-59
2024/03/22 08:55:47;;;;;;;9.43;7.18;;;;;;;;;;5073575;28;20024;-60
2024/03/22 08:58:14;;;;;;;12.10;7.45;;;;;;;;;;5073851;28;20078;-59
2024/03/22 09:00:40;;;;;;;9.10;6.63;;;;;;;;;;5073552;28;20028;-59
2024/03/22 09:03:06;;;;;;;9.50;7.20;;;;;;;;;;5073463;28;20032;-59
2024/03/22 09:05:31;;;;;;;8.50;6.72;;;;;;;;;;5073490;28;20423;-59
2024/03/22 09:07:57;;;;;;;10.43;7.78;;;;;;;;;;5073452;28;20536;-59
2024/03/22 09:10:22;;;;;;;7.90;6.85;;;;;;;;;;5055761;28;20111;-59
2024/03/22 09:12:47;;;;;;;7.53;6.68;;;;;;;;;;5073386;28;20383;-59
2024/03/22 09:15:13;;;;;;;6.72;5.90;;;;;;;;;;5073361;28;20063;-59
2024/03/22 09:17:38;;;;;;;8.27;7.22;;;;;;;;;;5073631;28;20056;-59
2024/03/22 09:20:05;;;;;;;7.88;6.45;;;;;;;;;;5073358;28;20483;-59
2024/03/22 09:22:32;;;;;;;9.13;6.93;;;;;;;;;;5073342;28;20045;-59
2024/03/22 09:24:57;;;;;;;8.32;7.20;;;;;;;;;;5073246;28;20055;-59
2024/03/22 09:27:23;;;;;;;9.65;6.25;;;;;;;;;;5073518;28;20458;-59
2024/03/22 09:29:48;;;;;;;8.02;6.45;;;;;;;;;;5073260;28;20036;-59
2024/03/22 09:32:14;;;;;;;10.00;7.13;;;;;;;;;;5055264;28;20029;-59
2024/03/22 09:34:40;;;;;;;7.53;5.88;;;;;;;;;;5055295;28;20024;-59
2024/03/22 09:37:06;;;;;;;7.78;5.88;;;;;;;;;;5073434;28;20037;-59
2024/03/22 09:39:32;;;;;;;6.95;6.25;;;;;;;;;;5073148;28;20538;-59
2024/03/22 09:41:58;;;;;;;6.88;5.75;;;;;;;;;;5073138;28;20032;-59
2024/03/22 09:44:26;;;;;;;5.80;5.20;;;;;;;;;;5075738;28;20043;-59
2024/03/22 09:46:54;;;;;;;7.20;6.05;;;;;;;;;;5059634;28;20029;-59
2024/03/22 09:49:22;;;;;;;7.40;6.10;;;;;;;;;;5077113;28;20031;-59
2024/03/22 09:51:49;;;;;;;7.28;5.80;;;;;;;;;;5076780;28;20019;-59
2024/03/22 09:54:14;;;;;;;5.53;5.03;;;;;;;;;;5059194;28;20081;-59
2024/03/22 09:56:39;;;;;;;7.05;6.13;;;;;;;;;;5076738;28;20465;-59
2024/03/22 09:59:06;;;;;;;7.00;6.30;;;;;;;;;;5076914;28;20028;-59
2024/03/22 10:01:32;;;;;;;6.60;5.32;;;;;;;;;;5058835;28;20024;-64
2024/03/22 10:03:57;;;;;;;7.63;6.18;;;;;;;;;;5076516;28;20055;-64
2024/03/22 10:06:22;;;;;;;7.47;5.93;;;;;;;;;;5076799;28;20070;-64
2024/03/22 10:08:48;;;;;;;6.45;5.80;;;;;;;;;;5058797;28;20033;-64
2024/03/22 10:11:13;;;;;;;8.68;6.72;;;;;;;;;;5076698;28;20021;-64
2024/03/22 10:13:40;;;;;;;7.45;6.65;;;;;;;;;;5076661;28;20039;-64
2024/03/22 10:16:05;;;;;;;7.47;6.28;;;;;;;;;;5076887;28;20471;-64
2024/03/22 10:18:34;;;;;;;9.05;7.03;;;;;;;;;;5076566;28;20086;-64
2024/03/22 10:21:04;;;;;;;7.00;6.32;;;;;;;;;;5076542;28;20039;-64
2024/03/22 10:23:30;;;;;;;9.13;6.63;;;;;;;;;;5058199;28;20029;-64
2024/03/22 10:25:58;;;;;;;7.10;6.40;;;;;;;;;;5058098;28;20025;-64
2024/03/22 10:28:25;;;;;;;7.10;6.15;;;;;;;;;;5076066;28;20068;-64
2024/03/22 10:30:52;;;;;;;8.32;6.57;;;;;;;;;;5076674;28;20077;-64
2024/03/22 10:33:19;;;;;;;6.80;6.13;;;;;;;;;;5058152;28;20037;-64
2024/03/22 10:35:46;;;;;;;8.45;7.32;;;;;;;;;;5076260;28;20086;-64
2024/03/22 10:38:12;;;;;;;6.88;6.18;;;;;;;;;;5076241;28;20107;-64
2024/03/22 10:40:38;;;;;;;7.30;6.57;;;;;;;;;;5041379;28;20119;-64
2024/03/22 10:43:04;;;;;;;6.32;5.70;;;;;;;;;;5075790;28;20024;-64
2024/03/22 10:45:30;;;;;;;6.68;5.97;;;;;;;;;;5075841;28;20044;-64
2024/03/22 10:47:55;;;;;;;5.75;5.05;;;;;;;;;;5075792;28;20028;-64
2024/03/22 10:50:21;;;;;;;5.65;5.15;;;;;;;;;;5076027;28;20056;-64
2024/03/22 10:52:50;;;;;;;5.50;4.93;;;;;;;;;;5057875;28;20040;-64
2024/03/22 10:55:23;;;;;;;5.90;5.30;;;;;;;;;;5075535;28;20039;-64
2024/03/22 10:57:50;;;;;;;6.07;5.47;;;;;;;;;;5075906;28;20032;-64
2024/03/22 11:00:17;;;;;;;6.10;5.50;;;;;;;;;;5075566;28;20027;-64
2024/03/22 11:02:43;;;;;;;6.00;5.20;;;;;;;;;;5076003;28;20075;-64
2024/03/22 11:05:16;;;;;;;6.63;5.90;;;;;;;;;;5075664;28;20052;-64
2024/03/22 11:07:43;;;;;;;6.20;5.57;;;;;;;;;;5075360;28;20067;-64
2024/03/22 11:10:08;;;;;;;6.78;5.97;;;;;;;;;;5075622;28;20431;-64
2024/03/22 11:12:37;;;;;;;6.45;5.88;;;;;;;;;;5057326;28;20060;-64
2024/03/22 11:15:02;;;;;;;6.53;5.80;;;;;;;;;;5075142;28;20028;-64
2024/03/22 11:17:27;;;;;;;6.53;5.93;;;;;;;;;;5075501;28;20078;-61
2024/03/22 11:19:56;;;;;;;6.80;6.13;;;;;;;;;;5086920;22;20443;-64
2024/03/22 11:22:28;;;;;;;10.00;7.70;;;;;;;;;;5091423;22;20080;-60
2024/03/22 11:24:54;;;;;;;12.82;9.25;;;;;;;;;;5078959;22;20529;-59
2024/03/22 11:27:20;;;;;;;13.00;8.68;;;;;;;;;;5075004;28;20029;-59
2024/03/22 11:29:46;;;;;;;13.77;9.70;;;;;;;;;;5075220;28;20482;-59
2024/03/22 11:32:15;;;;;;;12.05;10.02;;;;;;;;;;5074905;28;20032;-59
2024/03/22 11:34:41;;;;;;;12.80;9.60;;;;;;;;;;5074816;28;20028;-64
2024/03/22 11:37:10;;;;;;;14.82;8.70;;;;;;;;;;5040202;28;20432;-64
2024/03/22 11:39:38;;;;;;;14.07;8.98;;;;;;;;;;5074774;28;20048;-64
2024/03/22 11:42:05;;;;;;;12.35;9.23;;;;;;;;;;5056735;28;20039;-64
2024/03/22 11:44:31;;;;;;;13.88;8.43;;;;;;;;;;5056629;28;20037;-64
2024/03/22 11:46:56;;;;;;;10.23;8.90;;;;;;;;;;5074866;28;20032;-64
2024/03/22 11:49:22;;;;;;;13.60;8.48;;;;;;;;;;5075070;28;20070;-64
2024/03/22 11:51:47;;;;;;;10.32;8.93;;;;;;;;;;5056630;28;20032;-64
2024/03/22 11:54:12;;;;;;;10.45;8.23;;;;;;;;;;5056559;28;20056;-64
2024/03/22 12:00:13;;;;;;;8.20;6.68;;;;;;;;;;5074405;28;20027;-64
2024/03/22 12:02:44;;;;;;;8.80;6.75;;;;;;;;;;5074573;28;20151;-64
2024/03/22 12:05:09;;;;;;;7.20;6.40;;;;;;;;;;5074459;28;20120;-64
2024/03/22 12:07:36;;;;;;;9.98;7.30;;;;;;;;;;5073322;28;20499;-64
2024/03/22 12:10:01;;;;;;;10.65;8.25;;;;;;;;;;5074168;28;20020;-64
2024/03/22 12:12:27;;;;;;;11.05;7.90;;;;;;;;;;5074152;28;20378;-64
2024/03/22 12:14:53;;;;;;;9.82;8.30;;;;;;;;;;5074122;28;20028;-64
2024/03/22 12:17:19;;;;;;;12.05;8.68;;;;;;;;;;5074378;28;20505;-64
2024/03/22 12:19:45;;;;;;;10.82;8.50;;;;;;;;;;5056509;28;20477;-64
2024/03/22 12:22:10;;;;;;;10.77;8.82;;;;;;;;;;5073979;28;20032;-64
2024/03/22 12:24:36;;;;;;;12.27;9.05;;;;;;;;;;5073866;28;20036;-64
2024/03/22 12:27:01;;;;;;;12.13;9.15;;;;;;;;;;5055984;28;20482;-64
2024/03/22 12:32:06;;;;;;;11.35;8.48;;;;;;;;;;5077830;23;20055;-59
2024/03/22 12:34:33;;;;;;;10.63;8.48;;;;;;;;;;5082821;22;20064;-60
2024/03/22 12:36:59;;;;;;;9.90;8.02;;;;;;;;;;5073714;28;20021;-59
2024/03/22 12:39:24;;;;;;;13.68;9.20;;;;;;;;;;5074067;28;20028;-59
2024/03/22 12:41:51;;;;;;;13.38;8.68;;;;;;;;;;5073701;28;20024;-59
2024/03/22 12:44:16;;;;;;;10.70;8.75;;;;;;;;;;5073580;28;20051;-59
2024/03/22 12:46:44;;;;;;;13.35;8.75;;;;;;;;;;5073695;28;20463;-59
2024/03/22 12:49:11;;;;;;;13.60;8.95;;;;;;;;;;5039054;28;20021;-59
2024/03/22 12:51:38;;;;;;;14.07;8.48;;;;;;;;;;5055713;28;20016;-59
2024/03/22 12:54:03;;;;;;;11.02;8.80;;;;;;;;;;5074207;28;20029;-59
2024/03/22 12:56:30;;;;;;;12.77;8.68;;;;;;;;;;5073591;28;20029;-59
2024/03/22 12:58:55;;;;;;;10.57;8.23;;;;;;;;;;5056018;28;20492;-59
2024/03/22 13:01:22;;;;;;;9.40;7.45;;;;;;;;;;5073809;28;20028;-59
2024/03/22 13:03:47;;;;;;;11.00;7.47;;;;;;;;;;5073446;28;20078;-59
2024/03/22 13:06:13;;;;;;;16.52;11.25;;;;;;;;;;5073793;28;20102;-59
2024/03/22 13:08:39;;;;;;;36.50;18.60;;;;;;;;;;5073766;28;20028;-59
2024/03/22 13:11:04;;;;;;;12.07;6.88;;;;;;;;;;5038887;28;20439;-59
2024/03/22 13:13:30;;;;;;;11.82;7.28;;;;;;;;;;5055247;28;20025;-59
2024/03/22 13:16:02;;;;;;;8.80;6.80;;;;;;;;;;5073482;28;20042;-59
2024/03/22 13:18:28;;;;;;;8.68;7.55;;;;;;;;;;5064986;28;20039;-59
2024/03/22 13:20:54;;;;;;;8.07;6.80;;;;;;;;;;5045146;28;20029;-59
2024/03/22 13:23:19;;;;;;;12.93;7.95;;;;;;;;;;5057545;28;20155;-59
2024/03/22 13:25:44;;;;;;;28.50;13.70;;;;;;;;;;5057307;28;20013;-59
2024/03/22 13:28:10;;;;;;;10.38;6.78;;;;;;;;;;5064861;28;20024;-59
2024/03/22 13:30:37;;;;;;;10.23;6.95;;;;;;;;;;5047544;28;20040;-64
2024/03/22 13:33:03;;;;;;;25.27;13.45;;;;;;;;;;5063835;28;20136;-64
2024/03/22 13:35:28;;;;;;;8.18;6.43;;;;;;;;;;5049747;28;20036;-64
2024/03/22 13:37:55;;;;;;;14.25;6.97;;;;;;;;;;5065472;28;20341;-64
2024/03/22 13:40:22;;;;;;;10.70;7.45;;;;;;;;;;5066278;28;20463;-64
2024/03/22 13:42:48;;;;;;;6.47;5.85;;;;;;;;;;5049818;28;20509;-64
2024/03/22 13:45:14;;;;;;;8.43;6.28;;;;;;;;;;5047461;28;20123;-64
2024/03/22 13:47:40;;;;;;;6.72;5.82;;;;;;;;;;5048395;28;20024;-64
2024/03/22 13:50:12;;;;;;;7.65;6.10;;;;;;;;;;5073036;28;20036;-64
2024/03/22 13:52:37;;;;;;;10.93;6.60;;;;;;;;;;5076861;28;20016;-64
2024/03/22 13:55:04;;;;;;;9.95;7.05;;;;;;;;;;5076927;28;20359;-64
2024/03/22 13:57:30;;;;;;;7.80;6.28;;;;;;;;;;5076839;28;20032;-64
2024/03/22 13:59:58;;;;;;;7.30;6.25;;;;;;;;;;5042585;28;20475;-64
2024/03/22 14:02:24;;;;;;;6.20;5.60;;;;;;;;;;5077128;28;20039;-64
2024/03/22 14:04:49;;;;;;;12.07;7.18;;;;;;;;;;5058761;28;20032;-64
2024/03/22 14:07:15;;;;;;;9.10;7.13;;;;;;;;;;5058624;28;20482;-64
2024/03/22 14:09:43;;;;;;;6.30;5.68;;;;;;;;;;5058912;28;20021;-64
2024/03/22 14:12:09;;;;;;;7.38;6.30;;;;;;;;;;5075265;28;20028;-64
2024/03/22 14:14:35;;;;;;;7.35;6.63;;;;;;;;;;5076424;28;20028;-64
2024/03/22 14:17:00;;;;;;;10.23;7.68;;;;;;;;;;5076351;28;20036;-64
2024/03/22 14:19:26;;;;;;;7.38;6.00;;;;;;;;;;5076588;28;20090;-64
2024/03/22 14:21:54;;;;;;;7.70;5.75;;;;;;;;;;5074312;28;20143;-63
2024/03/22 14:24:22;;;;;;;8.88;6.00;;;;;;;;;;5076675;28;20384;-64
2024/03/22 14:27:04;;;;;;;7.18;5.97;;;;;;;;;;5075712;28;20086;-64
2024/03/22 14:29:31;;;;;;;7.72;5.88;;;;;;;;;;5075740;28;20055;-64
2024/03/22 14:31:58;;;;;;;8.48;6.50;;;;;;;;;;5076599;28;20028;-64